Terminal Aerodrome Forecast
Issued by NWS Wilmington, OH

Current Version | Previous Version | Graphics & Text | Print | Product List | Glossary Off
Versions: 1 2 3 4 5 6 7 8 9 10 11 12 13 14 15 16 17 18 19 20 21 22 23 24 25 26 27 28 29 30

472
FTUS41 KILN 282056 AAC
TAFCVG
TAF AMD
KCVG 282056Z 2821/2924 22004KT P6SM VCSH SCT040 BKN150
     FM290000 VRB02KT P6SM SCT040 BKN150
     FM290800 00000KT 3SM BR BKN015
     FM291400 24004KT P6SM BKN035
     FM291800 25054KT P6SM VCTS BKN040CB BKN150=

USA.gov is the U.S. government's official web portal to all federal, state and local government web resources and services.